sensor_id;sensor_type;location;lat;lon;timestamp;pressure;altitude;pressure_sealevel;temperature;humidity
60725;BME280;59881;36.722;-4.462;2023-05-12T08:05:26;100733.50;;;25.86;57.38
60725;BME280;59881;36.722;-4.462;2023-05-12T08:07:52;100590.53;;;25.93;52.92
60725;BME280;59881;36.722;-4.462;2023-05-12T08:10:17;100696.44;;;27.41;51.05
60725;BME280;59881;36.722;-4.462;2023-05-12T08:12:46;100695.91;;;26.59;50.09
60725;BME280;59881;36.722;-4.462;2023-05-12T08:15:12;100697.22;;;25.95;51.72
60725;BME280;59881;36.722;-4.462;2023-05-12T08:17:37;100697.91;;;25.63;53.14
60725;BME280;59881;36.722;-4.462;2023-05-12T08:20:03;100697.38;;;26.55;52.50
60725;BME280;59881;36.722;-4.462;2023-05-12T08:22:29;100702.69;;;27.42;49.85
60725;BME280;59881;36.722;-4.462;2023-05-12T08:24:55;100691.03;;;26.08;51.48
60725;BME280;59881;36.722;-4.462;2023-05-12T08:27:20;100644.28;;;24.48;55.11
60725;BME280;59881;36.722;-4.462;2023-05-12T08:29:46;100718.72;;;24.20;57.25
60725;BME280;59881;36.722;-4.462;2023-05-12T08:32:12;100726.81;;;23.83;59.50
60725;BME280;59881;36.722;-4.462;2023-05-12T08:34:37;100590.88;;;22.85;60.74
60725;BME280;59881;36.722;-4.462;2023-05-12T08:37:03;100666.69;;;23.25;59.70
60725;BME280;59881;36.722;-4.462;2023-05-12T08:39:29;100731.25;;;23.91;59.58
60725;BME280;59881;36.722;-4.462;2023-05-12T08:44:53;100659.59;;;23.53;59.01
60725;BME280;59881;36.722;-4.462;2023-05-12T08:47:19;100738.66;;;23.89;59.88
60725;BME280;59881;36.722;-4.462;2023-05-12T08:49:58;100608.00;;;22.99;60.93
60725;BME280;59881;36.722;-4.462;2023-05-12T08:52:24;100622.81;;;23.24;59.93
60725;BME280;59881;36.722;-4.462;2023-05-12T08:54:50;100731.44;;;24.26;59.25
60725;BME280;59881;36.722;-4.462;2023-05-12T08:57:20;100669.25;;;23.99;58.96
60725;BME280;59881;36.722;-4.462;2023-05-12T08:59:46;100734.84;;;24.34;58.91
60725;BME280;59881;36.722;-4.462;2023-05-12T09:02:12;100586.78;;;23.19;58.99
60725;BME280;59881;36.722;-4.462;2023-05-12T09:04:38;100726.19;;;24.39;58.91
60725;BME280;59881;36.722;-4.462;2023-05-12T09:07:04;100716.16;;;26.09;54.82
60725;BME280;59881;36.722;-4.462;2023-05-12T09:09:34;100593.88;;;27.72;49.22
60725;BME280;59881;36.722;-4.462;2023-05-12T09:12:01;100668.03;;;28.91;46.72
60725;BME280;59881;36.722;-4.462;2023-05-12T09:14:30;100597.03;;;30.10;42.78
60725;BME280;59881;36.722;-4.462;2023-05-12T09:17:02;100693.84;;;31.00;40.67
60725;BME280;59881;36.722;-4.462;2023-05-12T09:19:28;100715.66;;;30.82;41.30
60725;BME280;59881;36.722;-4.462;2023-05-12T09:21:54;100489.56;;;28.26;43.19
60725;BME280;59881;36.722;-4.462;2023-05-12T09:24:20;100724.63;;;29.06;44.73
60725;BME280;59881;36.722;-4.462;2023-05-12T09:26:51;100712.06;;;28.86;45.12
60725;BME280;59881;36.722;-4.462;2023-05-12T09:29:17;100705.00;;;30.15;43.05
60725;BME280;59881;36.722;-4.462;2023-05-12T09:34:16;100691.59;;;31.73;38.69
60725;BME280;59881;36.722;-4.462;2023-05-12T09:36:42;100697.47;;;31.29;39.22
60725;BME280;59881;36.722;-4.462;2023-05-12T09:39:08;100701.88;;;31.07;39.56
60725;BME280;59881;36.722;-4.462;2023-05-12T09:41:43;100719.47;;;31.40;39.86
60725;BME280;59881;36.722;-4.462;2023-05-12T09:44:09;100702.41;;;31.56;38.99
60725;BME280;59881;36.722;-4.462;2023-05-12T09:46:36;100688.16;;;32.23;38.34
60725;BME280;59881;36.722;-4.462;2023-05-12T09:49:03;100699.38;;;34.91;33.91
60725;BME280;59881;36.722;-4.462;2023-05-12T09:51:29;100694.25;;;35.53;32.18
60725;BME280;59881;36.722;-4.462;2023-05-12T09:53:56;100697.41;;;35.87;31.95
60725;BME280;59881;36.722;-4.462;2023-05-12T09:56:22;100693.06;;;36.32;31.03
60725;BME280;59881;36.722;-4.462;2023-05-12T09:58:51;100706.81;;;36.58;30.19
60725;BME280;59881;36.722;-4.462;2023-05-12T10:01:19;100697.28;;;35.09;32.91
60725;BME280;59881;36.722;-4.462;2023-05-12T10:03:50;100617.88;;;33.91;33.27
60725;BME280;59881;36.722;-4.462;2023-05-12T10:06:26;100629.91;;;31.67;36.45
60725;BME280;59881;36.722;-4.462;2023-05-12T10:11:21;100705.34;;;34.18;33.88
60725;BME280;59881;36.722;-4.462;2023-05-12T10:13:47;100642.38;;;35.20;32.16
60725;BME280;59881;36.722;-4.462;2023-05-12T10:16:13;100720.69;;;36.00;31.11
60725;BME280;59881;36.722;-4.462;2023-05-12T10:18:41;100558.13;;;35.58;30.39
60725;BME280;59881;36.722;-4.462;2023-05-12T10:21:08;100684.00;;;36.42;29.69
60725;BME280;59881;36.722;-4.462;2023-05-12T10:23:38;100693.16;;;35.54;31.12
60725;BME280;59881;36.722;-4.462;2023-05-12T10:26:04;100697.16;;;34.83;32.55
60725;BME280;59881;36.722;-4.462;2023-05-12T10:28:30;100525.38;;;35.11;30.92
60725;BME280;59881;36.722;-4.462;2023-05-12T10:30:57;100687.88;;;36.41;29.44
60725;BME280;59881;36.722;-4.462;2023-05-12T10:33:23;100586.50;;;35.16;30.75
60725;BME280;59881;36.722;-4.462;2023-05-12T10:35:50;100695.56;;;35.40;31.95
60725;BME280;59881;36.722;-4.462;2023-05-12T10:38:16;100512.41;;;32.26;33.63
60725;BME280;59881;36.722;-4.462;2023-05-12T10:41:01;100701.84;;;30.95;37.70
60725;BME280;59881;36.722;-4.462;2023-05-12T10:43:28;100610.44;;;28.52;41.40
60725;BME280;59881;36.722;-4.462;2023-05-12T10:49:05;100706.28;;;26.89;46.42
60725;BME280;59881;36.722;-4.462;2023-05-12T10:54:09;100712.03;;;26.19;48.73
60725;BME280;59881;36.722;-4.462;2023-05-12T11:01:39;100660.03;;;25.36;50.52
60725;BME280;59881;36.722;-4.462;2023-05-12T11:04:14;100720.31;;;25.28;51.39
60725;BME280;59881;36.722;-4.462;2023-05-12T11:06:40;100709.72;;;25.20;52.26
60725;BME280;59881;36.722;-4.462;2023-05-12T11:09:07;100701.84;;;24.97;51.72
60725;BME280;59881;36.722;-4.462;2023-05-12T11:11:33;100601.56;;;23.95;54.02
60725;BME280;59881;36.722;-4.462;2023-05-12T11:13:59;100595.78;;;23.99;54.67
60725;BME280;59881;36.722;-4.462;2023-05-12T11:16:25;100694.03;;;24.52;54.16
60725;BME280;59881;36.722;-4.462;2023-05-12T11:19:03;100679.97;;;24.57;54.07
60725;BME280;59881;36.722;-4.462;2023-05-12T11:21:33;100561.25;;;23.81;54.17
60725;BME280;59881;36.722;-4.462;2023-05-12T11:24:00;100684.31;;;24.51;53.71
60725;BME280;59881;36.722;-4.462;2023-05-12T11:26:29;100566.63;;;23.81;54.33
60725;BME280;59881;36.722;-4.462;2023-05-12T11:28:58;100671.06;;;24.35;55.01
60725;BME280;59881;36.722;-4.462;2023-05-12T11:31:24;100547.63;;;23.46;54.08
60725;BME280;59881;36.722;-4.462;2023-05-12T11:33:49;100676.16;;;23.87;54.09
60725;BME280;59881;36.722;-4.462;2023-05-12T11:36:16;100659.69;;;23.45;56.67
60725;BME280;59881;36.722;-4.462;2023-05-12T11:38:49;100623.13;;;23.29;57.55
60725;BME280;59881;36.722;-4.462;2023-05-12T11:41:24;100589.47;;;23.04;56.62
60725;BME280;59881;36.722;-4.462;2023-05-12T11:43:51;100656.19;;;23.45;56.86
60725;BME280;59881;36.722;-4.462;2023-05-12T11:46:29;100633.66;;;23.46;56.55
60725;BME280;59881;36.722;-4.462;2023-05-12T11:48:58;100627.44;;;23.30;56.54
60725;BME280;59881;36.722;-4.462;2023-05-12T11:51:25;100645.09;;;23.18;56.87
60725;BME280;59881;36.722;-4.462;2023-05-12T11:53:52;100532.97;;;22.52;57.09
60725;BME280;59881;36.722;-4.462;2023-05-12T11:56:22;100545.47;;;22.45;58.03
60725;BME280;59881;36.722;-4.462;2023-05-12T11:58:55;100552.03;;;22.43;58.91
60725;BME280;59881;36.722;-4.462;2023-05-12T12:01:22;100629.09;;;22.87;58.26
60725;BME280;59881;36.722;-4.462;2023-05-12T12:03:50;100648.00;;;22.79;59.27
60725;BME280;59881;36.722;-4.462;2023-05-12T12:06:17;100631.75;;;22.57;59.72
60725;BME280;59881;36.722;-4.462;2023-05-12T12:08:54;100613.13;;;22.41;58.99
60725;BME280;59881;36.722;-4.462;2023-05-12T12:11:21;100479.69;;;21.51;60.21
60725;BME280;59881;36.722;-4.462;2023-05-12T12:13:51;100630.69;;;22.43;60.64
60725;BME280;59881;36.722;-4.462;2023-05-12T12:16:25;100598.56;;;22.35;58.64
60725;BME280;59881;36.722;-4.462;2023-05-12T12:18:51;100597.06;;;22.33;59.50
60725;BME280;59881;36.722;-4.462;2023-05-12T12:21:17;100583.34;;;22.04;59.30
60725;BME280;59881;36.722;-4.462;2023-05-12T12:23:43;100603.00;;;22.20;58.99
60725;BME280;59881;36.722;-4.462;2023-05-12T12:26:08;100394.56;;;20.83;59.13
60725;BME280;59881;36.722;-4.462;2023-05-12T12:28:34;100610.06;;;21.98;59.79
60725;BME280;59881;36.722;-4.462;2023-05-12T12:33:25;100604.84;;;22.27;59.33
60725;BME280;59881;36.722;-4.462;2023-05-12T12:35:51;100463.56;;;21.27;58.33
60725;BME280;59881;36.722;-4.462;2023-05-12T12:38:16;100482.41;;;21.42;58.54
60725;BME280;59881;36.722;-4.462;2023-05-12T12:40:42;100601.19;;;21.97;58.71
60725;BME280;59881;36.722;-4.462;2023-05-12T12:43:07;100531.97;;;21.46;58.73
60725;BME280;59881;36.722;-4.462;2023-05-12T12:45:34;100593.88;;;21.83;59.64
60725;BME280;59881;36.722;-4.462;2023-05-12T12:47:59;100529.00;;;21.41;57.98
60725;BME280;59881;36.722;-4.462;2023-05-12T12:50:25;100470.25;;;21.00;56.66
60725;BME280;59881;36.722;-4.462;2023-05-12T12:52:50;100311.97;;;20.01;57.81
60725;BME280;59881;36.722;-4.462;2023-05-12T12:55:16;100537.69;;;21.43;58.67
60725;BME280;59881;36.722;-4.462;2023-05-12T12:57:42;100555.88;;;21.79;58.01
60725;BME280;59881;36.722;-4.462;2023-05-12T13:00:08;100485.09;;;21.42;57.58
60725;BME280;59881;36.722;-4.462;2023-05-12T13:02:34;100459.50;;;21.32;57.54
60725;BME280;59881;36.722;-4.462;2023-05-12T13:04:59;100551.31;;;22.03;57.04
60725;BME280;59881;36.722;-4.462;2023-05-12T13:07:30;100555.88;;;22.02;56.19
60725;BME280;59881;36.722;-4.462;2023-05-12T13:09:56;100530.13;;;21.93;56.58
60725;BME280;59881;36.722;-4.462;2023-05-12T13:12:21;100419.44;;;21.15;56.35
60725;BME280;59881;36.722;-4.462;2023-05-12T13:14:47;100534.03;;;21.67;58.18
60725;BME280;59881;36.722;-4.462;2023-05-12T13:19:38;100523.19;;;21.61;57.66
60725;BME280;59881;36.722;-4.462;2023-05-12T13:22:04;100554.16;;;21.63;58.31
60725;BME280;59881;36.722;-4.462;2023-05-12T13:24:30;100557.75;;;21.47;58.58
60725;BME280;59881;36.722;-4.462;2023-05-12T13:26:55;100528.19;;;21.33;58.30
60725;BME280;59881;36.722;-4.462;2023-05-12T13:29:21;100337.03;;;20.00;58.66
60725;BME280;59881;36.722;-4.462;2023-05-12T13:31:47;100410.41;;;20.45;58.31
60725;BME280;59881;36.722;-4.462;2023-05-12T13:34:13;100574.63;;;21.56;59.53
60725;BME280;59881;36.722;-4.462;2023-05-12T13:36:39;100439.41;;;21.13;59.09
60725;BME280;59881;36.722;-4.462;2023-05-12T13:39:05;100448.25;;;21.13;58.77
60725;BME280;59881;36.722;-4.462;2023-05-12T13:41:30;100318.03;;;20.26;58.77
60725;BME280;59881;36.722;-4.462;2023-05-12T13:43:56;100391.47;;;20.63;59.96
60725;BME280;59881;36.722;-4.462;2023-05-12T13:46:21;100494.09;;;21.18;60.79
60725;BME280;59881;36.722;-4.462;2023-05-12T13:48:47;100447.22;;;20.91;60.87
60725;BME280;59881;36.722;-4.462;2023-05-12T13:51:13;100543.53;;;21.47;60.99
60725;BME280;59881;36.722;-4.462;2023-05-12T13:53:39;100524.22;;;21.52;61.28
60725;BME280;59881;36.722;-4.462;2023-05-12T13:56:05;100530.91;;;21.56;60.69
60725;BME280;59881;36.722;-4.462;2023-05-12T13:58:30;100498.66;;;21.41;59.54
60725;BME280;59881;36.722;-4.462;2023-05-12T14:00:56;100423.06;;;20.99;60.39
60725;BME280;59881;36.722;-4.462;2023-05-12T14:03:21;100429.78;;;21.18;61.28
60725;BME280;59881;36.722;-4.462;2023-05-12T14:05:47;100509.13;;;21.59;61.37
60725;BME280;59881;36.722;-4.462;2023-05-12T14:08:13;100237.78;;;19.95;61.47
60725;BME280;59881;36.722;-4.462;2023-05-12T14:10:38;100434.00;;;20.90;62.09
60725;BME280;59881;36.722;-4.462;2023-05-12T14:13:04;100478.09;;;21.33;63.01
60725;BME280;59881;36.722;-4.462;2023-05-12T14:15:29;100362.38;;;20.60;62.29
60725;BME280;59881;36.722;-4.462;2023-05-12T14:17:55;100495.84;;;21.34;62.56
60725;BME280;59881;36.722;-4.462;2023-05-12T14:20:20;100490.88;;;21.54;62.82
60725;BME280;59881;36.722;-4.462;2023-05-12T14:22:46;100372.84;;;21.01;62.76
60725;BME280;59881;36.722;-4.462;2023-05-12T14:25:11;100473.91;;;21.62;62.01
60725;BME280;59881;36.722;-4.462;2023-05-12T14:27:37;100428.97;;;21.18;61.92
60725;BME280;59881;36.722;-4.462;2023-05-12T14:30:04;100471.16;;;21.47;62.49
60725;BME280;59881;36.722;-4.462;2023-05-12T14:32:31;100437.13;;;21.24;63.63
60725;BME280;59881;36.722;-4.462;2023-05-12T14:34:58;100427.19;;;21.10;64.91
60725;BME280;59881;36.722;-4.462;2023-05-12T14:37:24;100466.22;;;21.27;64.13
60725;BME280;59881;36.722;-4.462;2023-05-12T14:39:49;100472.09;;;21.31;64.80
60725;BME280;59881;36.722;-4.462;2023-05-12T14:42:15;100414.66;;;21.02;64.20
60725;BME280;59881;36.722;-4.462;2023-05-12T14:44:42;100338.41;;;20.67;64.06
60725;BME280;59881;36.722;-4.462;2023-05-12T14:47:08;100451.78;;;21.37;63.33
60725;BME280;59881;36.722;-4.462;2023-05-12T14:49:33;100298.38;;;20.42;64.12
60725;BME280;59881;36.722;-4.462;2023-05-12T14:51:58;100456.00;;;21.31;63.64
60725;BME280;59881;36.722;-4.462;2023-05-12T14:54:24;100436.75;;;21.27;61.37
60725;BME280;59881;36.722;-4.462;2023-05-12T14:56:49;100411.25;;;21.17;61.03
60725;BME280;59881;36.722;-4.462;2023-05-12T14:59:15;100359.81;;;20.98;62.12
60725;BME280;59881;36.722;-4.462;2023-05-12T15:01:41;100444.41;;;21.39;63.21
60725;BME280;59881;36.722;-4.462;2023-05-12T15:04:07;100321.69;;;20.65;63.66
60725;BME280;59881;36.722;-4.462;2023-05-12T15:06:32;100276.31;;;20.40;63.04
60725;BME280;59881;36.722;-4.462;2023-05-12T15:08:58;100361.16;;;20.94;62.72
60725;BME280;59881;36.722;-4.462;2023-05-12T15:11:23;100423.63;;;21.41;61.72
60725;BME280;59881;36.722;-4.462;2023-05-12T15:13:49;100426.47;;;21.39;62.19
60725;BME280;59881;36.722;-4.462;2023-05-12T15:16:14;100410.34;;;21.24;60.51
60725;BME280;59881;36.722;-4.462;2023-05-12T15:18:40;100423.91;;;21.23;61.44
60725;BME280;59881;36.722;-4.462;2023-05-12T15:21:06;100426.47;;;21.16;62.07
60725;BME280;59881;36.722;-4.462;2023-05-12T15:23:31;100417.63;;;20.84;62.71
60725;BME280;59881;36.722;-4.462;2023-05-12T15:25:57;100272.16;;;20.07;63.40
60725;BME280;59881;36.722;-4.462;2023-05-12T15:28:22;100321.03;;;20.23;64.48
60725;BME280;59881;36.722;-4.462;2023-05-12T15:30:54;100422.72;;;21.02;65.36
60725;BME280;59881;36.722;-4.462;2023-05-12T15:33:20;100405.66;;;21.03;65.65
60725;BME280;59881;36.722;-4.462;2023-05-12T15:35:46;100295.22;;;20.39;66.05
60725;BME280;59881;36.722;-4.462;2023-05-12T15:38:11;100363.34;;;20.67;66.63
60725;BME280;59881;36.722;-4.462;2023-05-12T15:40:37;100420.72;;;20.96;68.05
60725;BME280;59881;36.722;-4.462;2023-05-12T15:43:03;100282.31;;;20.19;68.73
60725;BME280;59881;36.722;-4.462;2023-05-12T15:45:29;100281.28;;;20.20;69.46
60725;BME280;59881;36.722;-4.462;2023-05-12T15:47:56;100406.81;;;21.01;69.73
60725;BME280;59881;36.722;-4.462;2023-05-12T15:50:22;100242.88;;;19.82;70.04
60725;BME280;59881;36.722;-4.462;2023-05-12T15:52:48;100404.59;;;20.81;71.16
60725;BME280;59881;36.722;-4.462;2023-05-12T15:55:14;100354.50;;;20.59;71.29
60725;BME280;59881;36.722;-4.462;2023-05-12T15:57:40;100340.91;;;20.37;70.74
60725;BME280;59881;36.722;-4.462;2023-05-12T16:00:06;100421.53;;;20.74;71.31
60725;BME280;59881;36.722;-4.462;2023-05-12T16:02:32;100356.59;;;20.40;71.14
60725;BME280;59881;36.722;-4.462;2023-05-12T16:04:57;100388.00;;;20.46;70.86
60725;BME280;59881;36.722;-4.462;2023-05-12T16:07:23;100412.22;;;20.61;71.47
60725;BME280;59881;36.722;-4.462;2023-05-12T16:09:53;100399.84;;;20.52;72.10
60725;BME280;59881;36.722;-4.462;2023-05-12T16:12:19;100425.63;;;20.45;72.31
60725;BME280;59881;36.722;-4.462;2023-05-12T16:14:44;100235.28;;;19.38;71.74
60725;BME280;59881;36.722;-4.462;2023-05-12T16:17:10;100433.34;;;20.48;72.33
60725;BME280;59881;36.722;-4.462;2023-05-12T16:19:35;100375.00;;;20.35;72.49
60725;BME280;59881;36.722;-4.462;2023-05-12T16:22:01;100399.31;;;20.65;72.25
60725;BME280;59881;36.722;-4.462;2023-05-12T16:24:26;100405.13;;;20.77;71.87
60725;BME280;59881;36.722;-4.462;2023-05-12T16:26:56;100374.69;;;20.70;71.44
60725;BME280;59881;36.722;-4.462;2023-05-12T16:29:23;100305.34;;;20.20;70.07
60725;BME280;59881;36.722;-4.462;2023-05-12T16:31:49;100387.38;;;20.76;70.42
60725;BME280;59881;36.722;-4.462;2023-05-12T16:34:15;100251.69;;;19.91;70.60
60725;BME280;59881;36.722;-4.462;2023-05-12T16:36:40;100336.16;;;20.47;70.81
60725;BME280;59881;36.722;-4.462;2023-05-12T16:39:06;100349.88;;;20.44;70.32
60725;BME280;59881;36.722;-4.462;2023-05-12T16:41:33;100178.75;;;19.18;70.70
60725;BME280;59881;36.722;-4.462;2023-05-12T16:43:59;100390.31;;;20.58;70.96
60725;BME280;59881;36.722;-4.462;2023-05-12T16:46:25;100379.28;;;20.53;70.98
60725;BME280;59881;36.722;-4.462;2023-05-12T16:48:51;100272.88;;;19.92;70.53
60725;BME280;59881;36.722;-4.462;2023-05-12T16:51:16;100301.84;;;20.20;70.45
60725;BME280;59881;36.722;-4.462;2023-05-12T16:53:42;100376.94;;;20.58;70.53
60725;BME280;59881;36.722;-4.462;2023-05-12T16:56:08;100376.13;;;20.57;70.96
60725;BME280;59881;36.722;-4.462;2023-05-12T16:58:34;100377.44;;;20.61;70.76
60725;BME280;59881;36.722;-4.462;2023-05-12T17:01:00;100178.06;;;19.24;70.29
60725;BME280;59881;36.722;-4.462;2023-05-12T17:03:26;100311.06;;;20.17;70.96
60725;BME280;59881;36.722;-4.462;2023-05-12T17:05:52;100369.78;;;20.50;71.39
60725;BME280;59881;36.722;-4.462;2023-05-12T17:08:18;100406.03;;;20.53;72.28
60725;BME280;59881;36.722;-4.462;2023-05-12T17:10:43;100296.00;;;20.16;72.10
60725;BME280;59881;36.722;-4.462;2023-05-12T17:13:09;100356.84;;;20.62;72.52
60725;BME280;59881;36.722;-4.462;2023-05-12T17:15:38;100359.81;;;20.67;72.63
60725;BME280;59881;36.722;-4.462;2023-05-12T17:18:04;100204.44;;;19.75;72.50
60725;BME280;59881;36.722;-4.462;2023-05-12T17:20:30;100365.97;;;20.76;72.55
60725;BME280;59881;36.722;-4.462;2023-05-12T17:22:56;100310.84;;;20.27;72.21
60725;BME280;59881;36.722;-4.462;2023-05-12T17:25:22;100294.34;;;20.15;72.87
60725;BME280;59881;36.722;-4.462;2023-05-12T17:27:48;100266.06;;;19.81;73.14
60725;BME280;59881;36.722;-4.462;2023-05-12T17:30:15;100222.88;;;19.53;74.03
60725;BME280;59881;36.722;-4.462;2023-05-12T17:32:41;100193.75;;;19.27;74.98
60725;BME280;59881;36.722;-4.462;2023-05-12T17:35:07;100336.75;;;20.26;75.03
60725;BME280;59881;36.722;-4.462;2023-05-12T17:37:33;100361.94;;;20.40;75.13
60725;BME280;59881;36.722;-4.462;2023-05-12T17:39:59;100358.59;;;20.38;75.77
60725;BME280;59881;36.722;-4.462;2023-05-12T17:42:28;100225.03;;;19.58;75.56
60725;BME280;59881;36.722;-4.462;2023-05-12T17:44:58;100357.78;;;20.38;75.29
60725;BME280;59881;36.722;-4.462;2023-05-12T17:47:24;100172.22;;;19.20;76.14
60725;BME280;59881;36.722;-4.462;2023-05-12T17:49:50;100350.25;;;20.41;76.33
60725;BME280;59881;36.722;-4.462;2023-05-12T17:52:17;100271.72;;;19.95;76.16
60725;BME280;59881;36.722;-4.462;2023-05-12T17:54:43;100373.44;;;20.49;76.05
60725;BME280;59881;36.722;-4.462;2023-05-12T17:57:08;100287.38;;;20.06;75.88
60725;BME280;59881;36.722;-4.462;2023-05-12T17:59:34;100254.91;;;19.70;76.20
60725;BME280;59881;36.722;-4.462;2023-05-12T18:02:00;100355.66;;;20.25;76.53
60725;BME280;59881;36.722;-4.462;2023-05-12T18:04:25;100170.75;;;19.01;76.62
60725;BME280;59881;36.722;-4.462;2023-05-12T18:06:51;100231.31;;;18.93;77.28
60725;BME280;59881;36.722;-4.462;2023-05-12T18:09:17;100366.94;;;19.96;77.59
60725;BME280;59881;36.722;-4.462;2023-05-12T18:11:45;100409.56;;;19.81;78.71
60725;BME280;59881;36.722;-4.462;2023-05-12T18:14:12;100367.00;;;19.71;79.21
60725;BME280;59881;36.722;-4.462;2023-05-12T18:16:37;100323.09;;;19.33;79.60
60725;BME280;59881;36.722;-4.462;2023-05-12T18:19:03;100392.88;;;19.62;80.26
60725;BME280;59881;36.722;-4.462;2023-05-12T18:21:29;100364.66;;;19.60;80.44
60725;BME280;59881;36.722;-4.462;2023-05-12T18:23:55;100382.69;;;19.58;80.50
60725;BME280;59881;36.722;-4.462;2023-05-12T18:26:21;100280.88;;;19.03;80.35
60725;BME280;59881;36.722;-4.462;2023-05-12T18:28:46;100093.03;;;17.82;80.55
60725;BME280;59881;36.722;-4.462;2023-05-12T18:31:12;100327.59;;;19.16;80.95
60725;BME280;59881;36.722;-4.462;2023-05-12T18:33:38;100375.16;;;19.37;81.10
60725;BME280;59881;36.722;-4.462;2023-05-12T18:36:04;100232.59;;;18.48;81.42
60725;BME280;59881;36.722;-4.462;2023-05-12T18:38:32;100295.03;;;18.79;81.72
60725;BME280;59881;36.722;-4.462;2023-05-12T18:40:58;100377.00;;;19.28;81.89
60725;BME280;59881;36.722;-4.462;2023-05-12T18:43:24;100241.09;;;18.43;82.12
60725;BME280;59881;36.722;-4.462;2023-05-12T18:45:50;100209.88;;;18.19;82.34
60725;BME280;59881;36.722;-4.462;2023-05-12T18:48:15;100372.16;;;19.15;82.15
60725;BME280;59881;36.722;-4.462;2023-05-12T18:50:41;100377.00;;;19.12;82.40
60725;BME280;59881;36.722;-4.462;2023-05-12T18:53:06;100385.50;;;19.07;83.14
60725;BME280;59881;36.722;-4.462;2023-05-12T18:55:33;100075.69;;;17.19;83.65
60725;BME280;59881;36.722;-4.462;2023-05-12T18:57:58;100311.81;;;18.47;84.25
60725;BME280;59881;36.722;-4.462;2023-05-12T19:00:24;100312.09;;;18.44;84.79
60725;BME280;59881;36.722;-4.462;2023-05-12T19:02:51;100411.19;;;19.00;84.97
60725;BME280;59881;36.722;-4.462;2023-05-12T19:05:17;100419.53;;;19.05;85.54
60725;BME280;59881;36.722;-4.462;2023-05-12T19:07:44;100328.09;;;18.36;85.86
60725;BME280;59881;36.722;-4.462;2023-05-12T19:10:10;100420.53;;;18.96;86.06
60725;BME280;59881;36.722;-4.462;2023-05-12T19:12:35;100409.81;;;18.88;86.73
60725;BME280;59881;36.722;-4.462;2023-05-12T19:15:01;100408.66;;;18.82;87.67
60725;BME280;59881;36.722;-4.462;2023-05-12T19:17:27;100412.63;;;18.78;87.90
60725;BME280;59881;36.722;-4.462;2023-05-12T19:19:52;100418.25;;;18.75;88.55
60725;BME280;59881;36.722;-4.462;2023-05-12T19:22:18;100192.53;;;17.30;89.06
60725;BME280;59881;36.722;-4.462;2023-05-12T19:24:44;100292.81;;;17.73;89.79
60725;BME280;59881;36.722;-4.462;2023-05-12T19:27:09;100276.63;;;17.67;90.23
60725;BME280;59881;36.722;-4.462;2023-05-12T19:29:36;100270.09;;;17.61;90.61
60725;BME280;59881;36.722;-4.462;2023-05-12T19:32:01;100454.72;;;18.58;90.97
60725;BME280;59881;36.722;-4.462;2023-05-12T19:34:27;100236.06;;;17.21;91.02
60725;BME280;59881;36.722;-4.462;2023-05-12T19:36:54;100311.06;;;17.60;91.14
60725;BME280;59881;36.722;-4.462;2023-05-12T19:39:20;100383.50;;;18.16;91.46
60725;BME280;59881;36.722;-4.462;2023-05-12T19:41:46;100465.22;;;18.59;91.29
60725;BME280;59881;36.722;-4.462;2023-05-12T19:44:11;100452.06;;;18.58;91.36
60725;BME280;59881;36.722;-4.462;2023-05-12T19:46:37;100466.56;;;18.64;91.34
60725;BME280;59881;36.722;-4.462;2023-05-12T19:49:03;100364.75;;;17.99;91.01
60725;BME280;59881;36.722;-4.462;2023-05-12T19:51:30;100470.06;;;18.64;91.04
60725;BME280;59881;36.722;-4.462;2023-05-12T19:53:56;100409.28;;;18.07;91.05
60725;BME280;59881;36.722;-4.462;2023-05-12T19:56:21;100302.94;;;17.44;91.03
60725;BME280;59881;36.722;-4.462;2023-05-12T19:58:47;100297.88;;;17.58;91.00
60725;BME280;59881;36.722;-4.462;2023-05-12T20:01:13;100309.69;;;17.56;90.83
60725;BME280;59881;36.722;-4.462;2023-05-12T20:03:38;100380.53;;;17.93;90.79
60725;BME280;59881;36.722;-4.462;2023-05-12T20:06:04;100286.69;;;17.55;90.38
60725;BME280;59881;36.722;-4.462;2023-05-12T20:08:29;100199.09;;;16.73;90.39
60725;BME280;59881;36.722;-4.462;2023-05-12T20:10:55;100272.97;;;17.42;90.72
60725;BME280;59881;36.722;-4.462;2023-05-12T20:13:20;100217.19;;;16.70;90.74
60725;BME280;59881;36.722;-4.462;2023-05-12T20:15:46;100194.41;;;16.85;90.84
60725;BME280;59881;36.722;-4.462;2023-05-12T20:18:11;100412.56;;;18.01;91.04
60725;BME280;59881;36.722;-4.462;2023-05-12T20:20:40;100211.81;;;16.80;91.07
60725;BME280;59881;36.722;-4.462;2023-05-12T20:23:06;100506.91;;;18.60;91.35
60725;BME280;59881;36.722;-4.462;2023-05-12T20:25:31;100388.25;;;17.78;91.04
60725;BME280;59881;36.722;-4.462;2023-05-12T20:27:57;100380.94;;;17.80;90.92
60725;BME280;59881;36.722;-4.462;2023-05-12T20:30:23;100343.34;;;17.39;90.58
60725;BME280;59881;36.722;-4.462;2023-05-12T20:32:49;100531.22;;;18.57;90.46
60725;BME280;59881;36.722;-4.462;2023-05-12T20:35:15;100552.75;;;18.56;90.48
60725;BME280;59881;36.722;-4.462;2023-05-12T20:37:41;100520.06;;;18.54;90.54
60725;BME280;59881;36.722;-4.462;2023-05-12T20:40:08;100417.03;;;17.74;90.25
60725;BME280;59881;36.722;-4.462;2023-05-12T20:42:34;100531.06;;;18.59;90.12
60725;BME280;59881;36.722;-4.462;2023-05-12T20:44:59;100416.94;;;17.84;90.11
60725;BME280;59881;36.722;-4.462;2023-05-12T20:47:25;100557.81;;;18.67;89.83
60725;BME280;59881;36.722;-4.462;2023-05-12T20:49:55;100536.13;;;18.70;89.35
60725;BME280;59881;36.722;-4.462;2023-05-12T20:52:22;100460.88;;;17.98;89.45
60725;BME280;59881;36.722;-4.462;2023-05-12T20:54:48;100553.50;;;18.74;89.20
60725;BME280;59881;36.722;-4.462;2023-05-12T20:57:19;100502.47;;;18.43;88.97
60725;BME280;59881;36.722;-4.462;2023-05-12T20:59:44;100372.13;;;17.62;88.72
60725;BME280;59881;36.722;-4.462;2023-05-12T21:02:11;100393.19;;;17.73;88.60
60725;BME280;59881;36.722;-4.462;2023-05-12T21:04:36;100546.25;;;18.85;88.31